createdAt,value
2022-12-04T00:00:02.837Z,1007
2022-12-04T00:01:04.774Z,1007.1
2022-12-04T00:02:06.794Z,1007
2022-12-04T00:03:08.803Z,1007.1
2022-12-04T00:04:10.799Z,1007.2
2022-12-04T00:05:12.748Z,1007.1
2022-12-04T00:06:14.711Z,1007.2
2022-12-04T00:07:15.683Z,1007.2
2022-12-04T00:08:16.779Z,1007.2
2022-12-04T00:09:17.714Z,1007.2
2022-12-04T00:10:19.416Z,1007.2
2022-12-04T00:11:20.701Z,1007.2
2022-12-04T00:12:21.692Z,1007.3
2022-12-04T00:13:22.694Z,1007.3
2022-12-04T00:14:23.722Z,1007.1
2022-12-04T00:15:26.128Z,1007.1
2022-12-04T00:16:25.811Z,1007.1
2022-12-04T00:17:26.773Z,1007.1
2022-12-04T00:18:28.713Z,1007.1
2022-12-04T00:19:30.714Z,1007
2022-12-04T00:20:31.678Z,1007.1
2022-12-04T00:21:32.775Z,1007.1
2022-12-04T00:22:33.660Z,1007.1
2022-12-04T00:23:34.721Z,1007.1
2022-12-04T00:24:36.053Z,1007.1
2022-12-04T00:25:41.051Z,1007.1
2022-12-04T00:26:39.757Z,1007.1
2022-12-04T00:27:41.773Z,1007
2022-12-04T00:28:43.776Z,1007
2022-12-04T00:29:45.713Z,1007.1
2022-12-04T00:30:46.774Z,1007.1
2022-12-04T00:31:47.827Z,1007
2022-12-04T00:32:49.660Z,1007
2022-12-04T00:33:51.714Z,1006.9
2022-12-04T00:34:53.755Z,1007.1
2022-12-04T00:35:55.774Z,1007.1
2022-12-04T00:36:57.893Z,1007.1
2022-12-04T00:37:59.873Z,1007.1
2022-12-04T00:39:01.756Z,1007.2
2022-12-04T00:40:02.777Z,1007.2
2022-12-04T00:41:04.776Z,1007.1
2022-12-04T00:42:05.799Z,1007.1
2022-12-04T00:43:07.732Z,1007.1
2022-12-04T00:44:09.812Z,1007
2022-12-04T00:45:11.972Z,1007
2022-12-04T00:46:13.913Z,1006.9
2022-12-04T00:47:15.713Z,1006.9
2022-12-04T00:48:16.713Z,1006.8
2022-12-04T00:49:17.781Z,1006.8
2022-12-04T00:50:18.776Z,1006.9
2022-12-04T00:51:20.774Z,1006.9
2022-12-04T00:52:22.793Z,1007
2022-12-04T00:53:24.779Z,1007
2022-12-04T00:54:26.732Z,1007
2022-12-04T00:55:28.980Z,1007
2022-12-04T00:56:30.714Z,1007
2022-12-04T00:57:31.800Z,1007
2022-12-04T00:58:33.733Z,1007
2022-12-04T00:59:34.712Z,1007
2022-12-04T01:00:37.142Z,1007
2022-12-04T01:01:38.873Z,1006.9
2022-12-04T01:02:40.834Z,1006.9
2022-12-04T01:03:42.794Z,1007
2022-12-04T01:04:44.694Z,1006.9
2022-12-04T01:05:45.834Z,1006.2
2022-12-04T01:06:48.721Z,1006.8
2022-12-04T01:07:50.786Z,1006.9
2022-12-04T01:08:52.874Z,1006.9
2022-12-04T01:09:54.936Z,1006.8
2022-12-04T01:10:56.772Z,1006.8
2022-12-04T01:11:58.782Z,1006.8
2022-12-04T01:13:00.860Z,1006.8
2022-12-04T01:14:02.766Z,1006.8
2022-12-04T01:15:03.829Z,1006.9
2022-12-04T01:16:05.864Z,1006.7
2022-12-04T01:17:07.838Z,1006.8
2022-12-04T01:18:09.754Z,1006.8
2022-12-04T01:19:11.094Z,1006.8
2022-12-04T01:20:12.792Z,1006.8
2022-12-04T01:21:14.797Z,1006.8
2022-12-04T01:22:16.834Z,1006.8
2022-12-04T01:23:18.752Z,1006.8
2022-12-04T01:24:19.795Z,1006.8
2022-12-04T01:25:21.853Z,1006.8
2022-12-04T01:26:23.906Z,1006.8
2022-12-04T01:27:25.853Z,1006.8
2022-12-04T01:28:28.160Z,1006.8
2022-12-04T01:29:29.804Z,1006.7
2022-12-04T01:30:30.805Z,1006.7
2022-12-04T01:31:32.872Z,1006.7
2022-12-04T01:32:34.752Z,1006.6
2022-12-04T01:33:36.773Z,1006.5
2022-12-04T01:34:38.737Z,1006.6
2022-12-04T01:35:41.091Z,1006.6
2022-12-04T01:36:42.773Z,1006.6
2022-12-04T01:37:45.020Z,1006.6
2022-12-04T01:38:47.055Z,1006.6
2022-12-04T01:39:48.822Z,1006.6
2022-12-04T01:40:50.879Z,1006.6
2022-12-04T01:41:52.852Z,1006.6
2022-12-04T01:42:54.774Z,1006.7
2022-12-04T01:43:56.758Z,1006.7
2022-12-04T01:44:58.761Z,1006.6
2022-12-04T01:45:59.865Z,1006.7
2022-12-04T01:47:00.826Z,1006.6
2022-12-04T01:48:03.052Z,1006.7
2022-12-04T01:49:04.812Z,1006.6
2022-12-04T01:50:06.832Z,1006.5
2022-12-04T01:51:08.772Z,1006.7
2022-12-04T01:52:10.792Z,1006.6
2022-12-04T01:53:13.686Z,1006.6
2022-12-04T01:54:14.713Z,1006.6
2022-12-04T01:55:15.752Z,1006.6
2022-12-04T01:56:16.733Z,1006.6
2022-12-04T01:57:17.733Z,1006.6
2022-12-04T01:58:18.801Z,1006.6
2022-12-04T01:59:20.843Z,1006.6
2022-12-04T02:00:22.812Z,1006.6
2022-12-04T02:01:24.936Z,1006.5
2022-12-04T02:02:26.933Z,1006.5
2022-12-04T02:03:28.904Z,1006.5
2022-12-04T02:06:19.026Z,1006.5
2022-12-04T02:07:21.413Z,1006.4
2022-12-04T02:08:22.851Z,1006.5
2022-12-04T02:09:26.953Z,1006.5
2022-12-04T02:10:26.793Z,1006.5
2022-12-04T02:11:28.794Z,1006.5
2022-12-04T02:12:29.743Z,1006.6
2022-12-04T02:13:30.823Z,1006.6
2022-12-04T02:14:32.795Z,1006.6
2022-12-04T02:15:34.722Z,1006.6
2022-12-04T02:16:36.988Z,1006.6
2022-12-04T02:17:38.824Z,1006.6
2022-12-04T02:18:40.900Z,1006.6
2022-12-04T02:19:42.810Z,1006.6
2022-12-04T02:20:44.733Z,1006.6
2022-12-04T02:21:45.799Z,1006.6
2022-12-04T02:22:46.755Z,1006.6
2022-12-04T02:23:47.933Z,1006.6
2022-12-04T02:24:50.284Z,1006.6
2022-12-04T02:25:51.854Z,1006.6
2022-12-04T02:26:53.834Z,1006.5
2022-12-04T02:27:55.816Z,1006.5
2022-12-04T02:28:57.813Z,1006.5
2022-12-04T02:29:59.826Z,1006.5
2022-12-04T02:31:01.853Z,1005.7
2022-12-04T02:32:03.834Z,1006.3
2022-12-04T02:33:05.733Z,1006.4
2022-12-04T02:34:06.815Z,1006.4
2022-12-04T02:35:07.782Z,1006.4
2022-12-04T02:36:10.481Z,1006.4
2022-12-04T02:37:11.773Z,1006.4
2022-12-04T02:38:12.813Z,1006.5
2022-12-04T02:39:14.844Z,1006.5
2022-12-04T02:40:15.844Z,1006.4
2022-12-04T02:41:17.773Z,1006.4
2022-12-04T02:42:18.861Z,1006.5
2022-12-04T02:43:20.793Z,1006.5
2022-12-04T02:44:22.792Z,1006.5
2022-12-04T02:45:24.780Z,1006.4
2022-12-04T02:46:26.877Z,1006.4
2022-12-04T02:47:28.810Z,1006.4
2022-12-04T02:48:30.773Z,1006.4
2022-12-04T02:49:31.773Z,1006.4
2022-12-04T02:50:32.894Z,1006.5
2022-12-04T02:51:34.932Z,1006.5
2022-12-04T02:52:36.795Z,1006.5
2022-12-04T02:53:38.813Z,1006.5
2022-12-04T02:54:40.894Z,1006.6
2022-12-04T02:55:42.841Z,1006.6
2022-12-04T02:56:44.803Z,1006.6
2022-12-04T02:57:45.772Z,1006.6
2022-12-04T02:58:46.835Z,1006.6
2022-12-04T02:59:47.777Z,1006.6
2022-12-04T03:00:48.845Z,1006.6
2022-12-04T03:01:49.848Z,1006.5
2022-12-04T03:02:51.875Z,1006.5
2022-12-04T03:03:53.774Z,1006.5
2022-12-04T03:04:55.854Z,1006.5
2022-12-04T03:05:57.813Z,1006.4
2022-12-04T03:06:58.812Z,1006.4
2022-12-04T03:08:00.409Z,1006.4
2022-12-04T03:09:01.844Z,1006.5
2022-12-04T03:10:03.873Z,1006.4
2022-12-04T03:11:05.936Z,1006.4
2022-12-04T03:12:07.853Z,1006.4
2022-12-04T03:13:09.861Z,1006.4
2022-12-04T03:14:11.842Z,1006.4
2022-12-04T03:15:13.854Z,1006.5
2022-12-04T03:16:15.861Z,1005.8
2022-12-04T03:17:17.803Z,1006.2
2022-12-04T03:18:18.794Z,1006.4
2022-12-04T03:19:19.813Z,1005.8
2022-12-04T03:20:20.853Z,1006.3
2022-12-04T03:21:22.874Z,1006.4
2022-12-04T03:22:24.806Z,1006.4
2022-12-04T03:23:26.894Z,1005.8
2022-12-04T03:24:28.942Z,1006.3
2022-12-04T03:25:30.894Z,1006.5
2022-12-04T03:26:33.395Z,1006.5
2022-12-04T03:27:34.847Z,1006.5
2022-12-04T03:28:36.050Z,1006.5
2022-12-04T03:29:37.855Z,1006.5
2022-12-04T03:30:39.927Z,1006.5
2022-12-04T03:31:41.904Z,1006.4
2022-12-04T03:32:43.913Z,1006.4
2022-12-04T03:33:46.130Z,1006.4
2022-12-04T03:34:47.802Z,1006.4
2022-12-04T03:35:49.837Z,1006.4
2022-12-04T03:36:50.872Z,1006.4
2022-12-04T03:37:52.836Z,1006.4
2022-12-04T03:38:54.874Z,1006.4
2022-12-04T03:39:57.017Z,1006.4
2022-12-04T03:40:58.873Z,1006.4
2022-12-04T03:42:00.922Z,1006.4
2022-12-04T03:43:02.753Z,1006.5
2022-12-04T03:44:04.193Z,1006.5
2022-12-04T03:45:06.333Z,1006.5
2022-12-04T03:46:07.929Z,1006.6
2022-12-04T03:47:09.985Z,1006.5
2022-12-04T03:48:11.793Z,1006.5
2022-12-04T03:49:12.833Z,1006.5
2022-12-04T03:50:13.793Z,1006.5
2022-12-04T03:51:14.814Z,1006.5
2022-12-04T03:52:15.893Z,1006.5
2022-12-04T03:53:17.855Z,1006.5
2022-12-04T03:54:18.854Z,1006.5
2022-12-04T03:55:20.933Z,1006.4
2022-12-04T03:56:22.833Z,1006.4
2022-12-04T03:57:24.993Z,1006.5
2022-12-04T03:58:26.923Z,1006.4
2022-12-04T03:59:28.825Z,1006.5
2022-12-04T04:00:29.855Z,1006.4
2022-12-04T04:01:30.812Z,1006.5
2022-12-04T04:02:31.926Z,1006.5
2022-12-04T04:03:32.795Z,1006.4
2022-12-04T04:04:33.808Z,1006.4
2022-12-04T04:05:35.934Z,1006.4
2022-12-04T04:06:37.892Z,1006.4
2022-12-04T04:07:39.958Z,1006.3
2022-12-04T04:08:41.854Z,1006.3
2022-12-04T04:09:43.867Z,1006.3
2022-12-04T04:10:44.861Z,1006.3
2022-12-04T04:11:46.841Z,1006.3
2022-12-04T04:12:47.753Z,1006.3
2022-12-04T04:13:49.433Z,1006.3
2022-12-04T04:14:50.833Z,1006.3
2022-12-04T04:15:52.899Z,1006.3
2022-12-04T04:16:53.854Z,1006.3
2022-12-04T04:17:54.787Z,1006.3
2022-12-04T04:18:55.894Z,1006.3
2022-12-04T04:19:58.113Z,1006.3
2022-12-04T04:20:59.840Z,1006.3
2022-12-04T04:22:00.833Z,1006.3
2022-12-04T04:23:01.853Z,1006.2
2022-12-04T04:24:02.813Z,1006.2
2022-12-04T04:25:03.864Z,1006.2
2022-12-04T04:26:05.874Z,1006.2
2022-12-04T04:27:06.813Z,1006.2
2022-12-04T04:28:07.834Z,1006.2
2022-12-04T04:29:08.793Z,1006.1
2022-12-04T04:30:09.894Z,1006.2
2022-12-04T04:31:12.157Z,1006.2
2022-12-04T04:32:13.901Z,1006.2
2022-12-04T04:33:15.182Z,1006.2
2022-12-04T04:34:17.013Z,1006.1
2022-12-04T04:35:19.076Z,1006.1
2022-12-04T04:36:20.837Z,1006.4
2022-12-04T04:37:22.873Z,1006.2
2022-12-04T04:38:24.873Z,1006.1
2022-12-04T04:39:26.934Z,1006.1
2022-12-04T04:40:28.942Z,1006.2
2022-12-04T04:41:31.095Z,1006.2
2022-12-04T04:42:33.259Z,1006.2
2022-12-04T04:43:34.873Z,1006.2
2022-12-04T04:44:36.893Z,1006.2
2022-12-04T04:45:38.873Z,1006.2
2022-12-04T04:46:41.035Z,1006.2
2022-12-04T04:47:42.893Z,1006.2
2022-12-04T04:48:44.870Z,1006.3
2022-12-04T04:49:45.812Z,1006.3
2022-12-04T04:50:46.816Z,1005.5
2022-12-04T04:51:48.193Z,1006.1
2022-12-04T04:52:50.173Z,1006.1
2022-12-04T04:53:51.893Z,1006.2
2022-12-04T04:54:53.912Z,1006.1
2022-12-04T04:55:55.869Z,1006.2
2022-12-04T04:56:57.895Z,1006.2
2022-12-04T04:57:59.894Z,1006.2
2022-12-04T04:59:01.913Z,1006.2
2022-12-04T05:00:03.953Z,1006.2
2022-12-04T05:01:05.897Z,1006.2
2022-12-04T05:02:07.907Z,1006.3
2022-12-04T05:03:09.969Z,1006.3
2022-12-04T05:04:11.924Z,1006.2
2022-12-04T05:05:13.913Z,1006.3
2022-12-04T05:06:15.854Z,1006.2
2022-12-04T05:07:16.882Z,1006.2
2022-12-04T05:08:18.947Z,1006.2
2022-12-04T05:09:20.818Z,1006.2
2022-12-04T05:10:22.894Z,1006.2
2022-12-04T05:11:24.833Z,1006.3
2022-12-04T05:12:26.854Z,1006.2
2022-12-04T05:13:28.826Z,1006.2
2022-12-04T05:14:30.874Z,1006.2
2022-12-04T05:15:32.853Z,1006.2
2022-12-04T05:16:33.894Z,1006.2
2022-12-04T05:17:35.025Z,1006.2
2022-12-04T05:18:37.033Z,1006.2
2022-12-04T05:19:38.902Z,1006.2
2022-12-04T05:20:40.915Z,1006.2
2022-12-04T05:21:43.793Z,1006.3
2022-12-04T05:22:45.815Z,1006.3
2022-12-04T05:23:46.861Z,1006.1
2022-12-04T05:24:47.853Z,1006.2
2022-12-04T05:25:48.874Z,1006.2
2022-12-04T05:26:50.174Z,1006.2
2022-12-04T05:27:51.853Z,1006.3
2022-12-04T05:28:58.817Z,1006.3
2022-12-04T05:30:01.081Z,1006.2
2022-12-04T05:31:02.919Z,1006.3
2022-12-04T05:32:03.818Z,1006.2
2022-12-04T05:33:04.813Z,1006.2
2022-12-04T05:34:05.993Z,1006.1
2022-12-04T05:35:11.260Z,1006.2
2022-12-04T05:36:09.882Z,1006.2
2022-12-04T05:37:12.054Z,1006.2
2022-12-04T05:38:13.876Z,1006.2
2022-12-04T05:39:15.862Z,1006.2
2022-12-04T05:40:16.833Z,1006.2
2022-12-04T05:41:17.810Z,1006.2
2022-12-04T05:42:18.813Z,1006.2
2022-12-04T05:43:19.887Z,1006.3
2022-12-04T05:44:21.840Z,1006.2
2022-12-04T05:45:23.893Z,1006.2
2022-12-04T05:46:25.992Z,1006.2
2022-12-04T05:47:27.794Z,1006.2
2022-12-04T05:48:29.844Z,1006.2
2022-12-04T05:49:30.834Z,1006.3
2022-12-04T05:50:31.949Z,1006.3
2022-12-04T05:51:33.870Z,1006.3
2022-12-04T05:52:35.039Z,1006.3
2022-12-04T05:53:37.194Z,1006.3
2022-12-04T05:54:38.913Z,1006.3
2022-12-04T05:55:40.934Z,1006.2
2022-12-04T05:56:42.874Z,1006.2
2022-12-04T05:57:43.922Z,1006.2
2022-12-04T05:58:46.181Z,1006.3
2022-12-04T05:59:48.201Z,1006.3
2022-12-04T06:00:49.834Z,1006.3
2022-12-04T06:01:50.931Z,1006.3
2022-12-04T06:02:51.935Z,1006.3
2022-12-04T06:03:52.904Z,1006.3
2022-12-04T06:04:54.295Z,1006.4
2022-12-04T06:05:55.863Z,1006.4
2022-12-04T06:06:57.777Z,1006.4
2022-12-04T06:07:58.876Z,1006.3
2022-12-04T06:08:59.929Z,1006.4
2022-12-04T06:10:02.134Z,1006.4
2022-12-04T06:11:03.874Z,1006.3
2022-12-04T06:12:05.823Z,1006.4
2022-12-04T06:13:07.393Z,1006.4
2022-12-04T06:14:08.874Z,1006.4
2022-12-04T06:15:10.853Z,1006.4
2022-12-04T06:16:11.916Z,1005.7
2022-12-04T06:17:12.858Z,1006.4
2022-12-04T06:18:13.856Z,1006.5
2022-12-04T06:19:14.982Z,1006.5
2022-12-04T06:20:16.941Z,1006.5
2022-12-04T06:21:18.862Z,1006.5
2022-12-04T06:22:19.873Z,1006.5
2022-12-04T06:23:20.882Z,1006.5
2022-12-04T06:24:23.515Z,1006.6
2022-12-04T06:25:24.854Z,1006.6
2022-12-04T06:26:25.855Z,1006.6
2022-12-04T06:27:28.176Z,1006.6
2022-12-04T06:28:27.815Z,1006.5
2022-12-04T06:29:28.892Z,1006.5
2022-12-04T06:30:29.854Z,1006.5
2022-12-04T06:31:30.938Z,1006.5
2022-12-04T06:32:32.593Z,1006.5
2022-12-04T06:33:33.935Z,1006.6
2022-12-04T06:34:35.115Z,1006.5
2022-12-04T06:35:36.869Z,1006.6
2022-12-04T06:36:38.861Z,1006.5
2022-12-04T06:37:40.493Z,1006.5
2022-12-04T06:38:41.954Z,1006.5
2022-12-04T06:39:43.880Z,1006.5
2022-12-04T06:40:44.914Z,1006.5
2022-12-04T06:41:46.935Z,1006.5
2022-12-04T06:42:48.834Z,1006.5
2022-12-04T06:43:49.894Z,1006.5
2022-12-04T06:44:51.141Z,1006.5
2022-12-04T06:45:52.916Z,1006.5
2022-12-04T06:46:55.075Z,1006.5
2022-12-04T06:47:55.880Z,1006.5
2022-12-04T06:48:57.935Z,1006.6
2022-12-04T06:49:59.078Z,1006.5
2022-12-04T06:50:59.913Z,1006.5
2022-12-04T06:52:01.944Z,1006.5
2022-12-04T06:53:08.220Z,1006.5
2022-12-04T06:54:06.061Z,1006.4
2022-12-04T06:55:07.894Z,1006.4
2022-12-04T06:56:08.896Z,1006.4
2022-12-04T06:57:10.496Z,1006.4
2022-12-04T06:58:12.395Z,1006.4
2022-12-04T06:59:14.533Z,1006.5
2022-12-04T07:00:15.974Z,1006.5
2022-12-04T07:01:17.969Z,1006.5
2022-12-04T07:02:20.264Z,1006.4
2022-12-04T07:03:21.893Z,1006.4
2022-12-04T07:04:23.902Z,1006.4
2022-12-04T07:05:25.857Z,1006.3
2022-12-04T07:06:27.974Z,1006.4
2022-12-04T07:07:30.086Z,1006.5
2022-12-04T07:08:31.892Z,1006.4
2022-12-04T07:09:34.104Z,1006.4
2022-12-04T07:10:35.860Z,1006.4
2022-12-04T07:11:36.975Z,1006.5
2022-12-04T07:12:38.893Z,1006.5
2022-12-04T07:13:39.854Z,1006.5
2022-12-04T07:14:41.154Z,1006.5
2022-12-04T07:15:42.954Z,1006.4
2022-12-04T07:16:45.467Z,1006.4
2022-12-04T07:17:47.139Z,1006.3
2022-12-04T07:18:49.974Z,1006.4
2022-12-04T07:19:52.095Z,1006.4
2022-12-04T07:20:53.893Z,1006.4
2022-12-04T07:21:55.115Z,1006.4
2022-12-04T07:22:56.962Z,1006.5
2022-12-04T07:23:58.914Z,1006.5
2022-12-04T07:24:59.913Z,1006.5
2022-12-04T07:26:00.939Z,1006.5
2022-12-04T07:27:02.237Z,1005.3
2022-12-04T07:28:03.922Z,1006.1
2022-12-04T07:29:04.874Z,1006.4
2022-12-04T07:30:12.604Z,1006.4
2022-12-04T07:31:09.974Z,1006.4
2022-12-04T07:32:12.126Z,1006.4
2022-12-04T07:33:13.939Z,1006.4
2022-12-04T07:34:15.973Z,1006.4
2022-12-04T07:35:17.935Z,1006.3
2022-12-04T07:36:19.963Z,1006.3
2022-12-04T07:37:21.951Z,1006.4
2022-12-04T07:38:23.945Z,1006.5
2022-12-04T07:39:25.975Z,1006.4
2022-12-04T07:40:28.035Z,1006.5
2022-12-04T07:41:29.933Z,1006.5
2022-12-04T07:42:30.952Z,1006.5
2022-12-04T07:43:31.921Z,1006.5
2022-12-04T07:44:33.954Z,1006.5
2022-12-04T07:45:36.100Z,1006.7
2022-12-04T07:46:38.400Z,1006.6
2022-12-04T07:47:39.970Z,1006.5
2022-12-04T07:48:41.973Z,1006.6
2022-12-04T07:49:42.974Z,1006.6
2022-12-04T07:50:44.973Z,1006.5
2022-12-04T07:51:46.974Z,1006.6
2022-12-04T07:52:48.953Z,1006.6
2022-12-04T07:53:49.963Z,1006.6
2022-12-04T07:54:52.014Z,1006.6
2022-12-04T07:55:54.054Z,1006.6
2022-12-04T07:56:56.113Z,1006.5
2022-12-04T07:57:58.013Z,1006.5
2022-12-04T07:58:59.995Z,1006.5
2022-12-04T08:00:02.515Z,1006.6
2022-12-04T08:01:04.454Z,1006.5
2022-12-04T08:02:05.959Z,1006.6
2022-12-04T08:03:07.994Z,1006.5
2022-12-04T08:04:10.034Z,1006.5
2022-12-04T08:05:12.697Z,1006.5
2022-12-04T08:06:13.942Z,1006.5
2022-12-04T08:07:15.013Z,1006.4
2022-12-04T08:08:17.009Z,1006.5
2022-12-04T08:09:19.042Z,1006.4
2022-12-04T08:10:22.075Z,1006.4
2022-12-04T08:11:24.237Z,1006.4
2022-12-04T08:12:25.932Z,1006.4
2022-12-04T08:13:27.976Z,1006.5
2022-12-04T08:14:30.534Z,1006.4
2022-12-04T08:15:32.256Z,1006.4
2022-12-04T08:16:34.385Z,1006.4
2022-12-04T08:17:35.980Z,1006.5
2022-12-04T08:18:37.886Z,1006.5
2022-12-04T08:19:40.654Z,1006.5
2022-12-04T08:20:41.996Z,1006.5
2022-12-04T08:21:43.914Z,1006.5
2022-12-04T08:22:44.899Z,1006.5
2022-12-04T08:23:46.954Z,1006.5
2022-12-04T08:24:49.023Z,1006.6
2022-12-04T08:25:49.954Z,1006.5
2022-12-04T08:26:51.921Z,1006.5
2022-12-04T08:27:53.915Z,1006.6
2022-12-04T08:28:55.130Z,1006.5
2022-12-04T08:29:57.555Z,1006.6
2022-12-04T08:30:59.477Z,1006.6
2022-12-04T08:32:01.016Z,1006.5
2022-12-04T08:33:02.974Z,1006.5
2022-12-04T08:34:04.217Z,1006.6
2022-12-04T08:35:06.074Z,1006.6
2022-12-04T08:36:08.013Z,1006.5
2022-12-04T08:37:09.922Z,1006.5
2022-12-04T08:38:11.113Z,1006.6
2022-12-04T08:39:13.634Z,1006.6
2022-12-04T08:40:15.391Z,1006.6
2022-12-04T08:41:17.082Z,1006.6
2022-12-04T08:42:18.914Z,1006.7
2022-12-04T08:43:19.997Z,1006.7
2022-12-04T08:44:22.221Z,1006.7
2022-12-04T08:45:24.214Z,1006.7
2022-12-04T08:46:26.139Z,1006.7
2022-12-04T08:47:27.934Z,1006.7
2022-12-04T08:48:29.136Z,1006.6
2022-12-04T08:49:32.336Z,1006.6
2022-12-04T08:50:34.273Z,1006.7
2022-12-04T08:51:36.264Z,1006.8
2022-12-04T08:52:38.495Z,1006.7
2022-12-04T08:53:40.121Z,1006.7
2022-12-04T08:54:42.374Z,1006.8
2022-12-04T08:55:44.473Z,1006.7
2022-12-04T08:56:46.827Z,1006.7
2022-12-04T08:57:48.196Z,1006.7
2022-12-04T08:58:50.291Z,1006.7
2022-12-04T08:59:52.379Z,1006.7
2022-12-04T09:00:53.994Z,1006.8
2022-12-04T09:01:55.106Z,1006.8
2022-12-04T09:02:57.714Z,1006.8
2022-12-04T09:03:59.454Z,1006.8
2022-12-04T09:05:01.323Z,1006.8
2022-12-04T09:06:04.016Z,1006.8
2022-12-04T09:07:06.044Z,1006.8
2022-12-04T09:08:08.479Z,1006.7
2022-12-04T09:09:10.334Z,1006.7
2022-12-04T09:10:12.037Z,1006.7
2022-12-04T09:11:14.108Z,1006.7
2022-12-04T09:12:15.997Z,1006.7
2022-12-04T09:13:17.282Z,1006.6
2022-12-04T09:14:19.554Z,1006.6
2022-12-04T09:15:21.175Z,1006.6
2022-12-04T09:16:23.053Z,1006.6
2022-12-04T09:17:25.386Z,1006.6
2022-12-04T09:18:27.217Z,1006.6
2022-12-04T09:19:29.354Z,1006.6
2022-12-04T09:20:30.975Z,1006.6
2022-12-04T09:21:33.057Z,1006.6
2022-12-04T09:22:51.624Z,1006.6
2022-12-04T09:23:37.574Z,1006.6
2022-12-04T09:24:39.763Z,1006.6
2022-12-04T09:25:40.959Z,1006.6
2022-12-04T09:26:42.503Z,1006.6
2022-12-04T09:27:43.934Z,1006.6
2022-12-04T09:28:45.215Z,1006.6
2022-12-04T09:29:46.930Z,1006.5
2022-12-04T09:30:47.990Z,1006.5
2022-12-04T09:31:49.457Z,1006.5
2022-12-04T09:32:51.791Z,1006.5
2022-12-04T09:33:54.314Z,1006.5
2022-12-04T09:34:55.965Z,1006.5
2022-12-04T09:35:58.060Z,1006.5
2022-12-04T09:37:00.152Z,1006.5
2022-12-04T09:38:03.294Z,1006.6
2022-12-04T09:39:05.613Z,1006.5
2022-12-04T09:40:07.078Z,1006.5
2022-12-04T09:41:09.015Z,1006.5
2022-12-04T09:42:10.520Z,1006.5
2022-12-04T09:43:12.615Z,1006.6
2022-12-04T09:44:14.054Z,1006.5
2022-12-04T09:45:16.075Z,1006.4
2022-12-04T09:46:18.439Z,1006.4
2022-12-04T09:47:20.381Z,1006.5
2022-12-04T09:48:22.355Z,1006.4
2022-12-04T09:49:23.995Z,1006.4
2022-12-04T09:50:26.045Z,1006.4
2022-12-04T09:51:28.754Z,1006.4
2022-12-04T09:52:30.073Z,1006.4
2022-12-04T09:53:32.774Z,1006.4
2022-12-04T09:54:35.127Z,1006.3
2022-12-04T09:55:37.481Z,1006.4
2022-12-04T09:56:39.554Z,1006.4
2022-12-04T09:58:01.466Z,1006.4
2022-12-04T09:58:58.076Z,1006.3
2022-12-04T10:00:00.001Z,1006.4
2022-12-04T10:01:01.194Z,1006.3
2022-12-04T10:02:03.391Z,1006.2
2022-12-04T10:03:05.849Z,1006.2
2022-12-04T10:04:07.063Z,1006.2
2022-12-04T10:05:09.174Z,1006.2
2022-12-04T10:06:11.086Z,1006.2
2022-12-04T10:07:13.253Z,1006.2
2022-12-04T10:08:15.137Z,1006.2
2022-12-04T10:09:16.993Z,1006.2
2022-12-04T10:10:18.155Z,1006.1
2022-12-04T10:11:20.357Z,1006.2
2022-12-04T10:12:22.923Z,1006.1
2022-12-04T10:13:25.123Z,1006.2
2022-12-04T10:14:27.276Z,1006.1
2022-12-04T10:15:29.530Z,1006.1
2022-12-04T10:16:31.151Z,1006.1
2022-12-04T10:17:34.229Z,1006.1
2022-12-04T10:18:36.033Z,1006.1
2022-12-04T10:19:37.966Z,1006
2022-12-04T10:20:39.133Z,1006
2022-12-04T10:21:41.074Z,1006
2022-12-04T10:22:43.673Z,1006
2022-12-04T10:23:46.075Z,1006
2022-12-04T10:25:56.035Z,1005.9
2022-12-04T10:26:58.564Z,1006
2022-12-04T10:28:00.073Z,1006
2022-12-04T10:29:02.101Z,1005.9
2022-12-04T10:30:04.235Z,1006
2022-12-04T10:31:06.568Z,1006
2022-12-04T10:32:08.795Z,1006
2022-12-04T10:33:10.333Z,1006
2022-12-04T10:34:12.454Z,1005.9
2022-12-04T10:35:13.962Z,1006
2022-12-04T10:36:15.025Z,1006
2022-12-04T10:37:17.513Z,1006.1
2022-12-04T10:38:19.034Z,1006
2022-12-04T10:39:19.994Z,1005.4
2022-12-04T10:40:21.154Z,1005.8
2022-12-04T10:41:23.842Z,1005.9
2022-12-04T10:42:25.342Z,1005.9
2022-12-04T10:43:27.434Z,1005.9
2022-12-04T10:44:29.823Z,1005.8
2022-12-04T10:45:31.140Z,1005.8
2022-12-04T10:46:33.572Z,1005.9
2022-12-04T10:47:35.094Z,1005.9
2022-12-04T10:48:37.162Z,1005.9
2022-12-04T10:49:39.078Z,1005.8
2022-12-04T10:50:41.113Z,1005.5
2022-12-04T10:51:43.053Z,1005.8
2022-12-04T10:52:45.205Z,1005.8
2022-12-04T10:53:47.694Z,1005.9
2022-12-04T10:54:49.481Z,1005.8
2022-12-04T10:55:51.018Z,1005.8
2022-12-04T10:56:53.241Z,1005.8
2022-12-04T10:57:55.457Z,1005.8
2022-12-04T10:58:57.675Z,1005.8
2022-12-04T10:59:59.753Z,1005.7
2022-12-04T11:01:01.513Z,1005.7
2022-12-04T11:02:06.847Z,1005.6
2022-12-04T11:03:05.026Z,1005.6
2022-12-04T11:04:06.064Z,1005.7
2022-12-04T11:05:08.522Z,1005.6
2022-12-04T11:06:11.074Z,1005.6
2022-12-04T11:07:13.716Z,1005.7
2022-12-04T11:08:19.783Z,1005.7
2022-12-04T11:09:17.576Z,1005.7
2022-12-04T11:10:19.139Z,1005.7
2022-12-04T11:11:21.576Z,1005.7
2022-12-04T11:12:23.127Z,1005.7
2022-12-04T11:13:25.035Z,1005.7
2022-12-04T11:14:27.386Z,1005.6
2022-12-04T11:15:29.396Z,1005.6
2022-12-04T11:16:31.123Z,1005.6
2022-12-04T11:17:33.116Z,1005.6
2022-12-04T11:18:35.281Z,1005.5
2022-12-04T11:19:36.969Z,1005.5
2022-12-04T11:20:39.971Z,1004.9
2022-12-04T11:21:40.033Z,1005.3
2022-12-04T11:22:41.336Z,1005.4
2022-12-04T11:23:43.954Z,1005.5
2022-12-04T11:24:46.040Z,1005.5
2022-12-04T11:25:47.133Z,1005.5
2022-12-04T11:26:49.055Z,1005.4
2022-12-04T11:27:50.090Z,1005.4
2022-12-04T11:28:52.203Z,1005.4
2022-12-04T11:29:54.373Z,1005.5
2022-12-04T11:30:56.419Z,1005.4
2022-12-04T11:32:01.516Z,1005.5
2022-12-04T11:33:00.173Z,1005.5
2022-12-04T11:34:02.093Z,1005.5
2022-12-04T11:35:04.389Z,1005.5
2022-12-04T11:36:06.693Z,1005.4
2022-12-04T11:37:08.007Z,1005.5
2022-12-04T11:38:10.080Z,1005.5
2022-12-04T11:39:12.610Z,1005.5
2022-12-04T11:40:13.993Z,1005.4
2022-12-04T11:41:15.755Z,1005.5
2022-12-04T11:42:17.193Z,1005.4
2022-12-04T11:43:19.035Z,1005.5
2022-12-04T11:44:21.372Z,1005.4
2022-12-04T11:45:23.414Z,1005.4
2022-12-04T11:46:25.203Z,1005.5
2022-12-04T11:47:27.534Z,1005.4
2022-12-04T11:48:29.515Z,1005.4
2022-12-04T11:49:31.878Z,1005.4
2022-12-04T11:50:34.036Z,1005.3
2022-12-04T11:51:36.114Z,1005.4
2022-12-04T11:52:38.253Z,1005.4
2022-12-04T11:53:40.434Z,1005.5
2022-12-04T11:54:42.151Z,1005.4
2022-12-04T11:55:44.124Z,1005.4
2022-12-04T11:56:46.774Z,1005.4
2022-12-04T11:57:48.414Z,1005.4
2022-12-04T11:58:50.256Z,1005.5
2022-12-04T11:59:52.155Z,1005.4
2022-12-04T12:00:54.009Z,1005.5
2022-12-04T12:01:58.344Z,1005.6
2022-12-04T12:02:57.674Z,1005.5
2022-12-04T12:03:59.054Z,1005.5
2022-12-04T12:05:01.183Z,1005.4
2022-12-04T12:06:03.156Z,1005.4
2022-12-04T12:07:05.634Z,1005.4
2022-12-04T12:08:07.341Z,1005.4
2022-12-04T12:09:09.288Z,1005.4
2022-12-04T12:10:11.215Z,1005.4
2022-12-04T12:11:13.528Z,1005.3
2022-12-04T12:12:15.273Z,1005.3
2022-12-04T12:13:17.502Z,1005.3
2022-12-04T12:14:19.114Z,1005.4
2022-12-04T12:15:21.062Z,1005.4
2022-12-04T12:16:23.302Z,1005.4
2022-12-04T12:17:25.923Z,1005.4
2022-12-04T12:18:27.116Z,1005.4
2022-12-04T12:19:29.613Z,1005.4
2022-12-04T12:20:31.263Z,1005.4
2022-12-04T12:21:33.812Z,1005.3
2022-12-04T12:22:35.137Z,1005.3
2022-12-04T12:23:37.272Z,1005.4
2022-12-04T12:24:40.125Z,1005.4
2022-12-04T12:25:41.202Z,1005.4
2022-12-04T12:26:43.573Z,1005.4
2022-12-04T12:27:45.116Z,1005.4
2022-12-04T12:28:47.053Z,1005.4
2022-12-04T12:29:48.156Z,1005.5
2022-12-04T12:30:50.568Z,1005.5
2022-12-04T12:31:52.703Z,1005.5
2022-12-04T12:32:54.296Z,1005.5
2022-12-04T12:33:56.133Z,1005.5
2022-12-04T12:34:58.054Z,1005.4
2022-12-04T12:36:00.342Z,1005.4
2022-12-04T12:37:02.356Z,1005.4
2022-12-04T12:38:04.474Z,1005.4
2022-12-04T12:39:06.092Z,1005.5
2022-12-04T12:40:08.525Z,1005.5
2022-12-04T12:41:11.513Z,1005.5
2022-12-04T12:42:13.933Z,1005.6
2022-12-04T12:43:15.159Z,1005.5
2022-12-04T12:44:17.405Z,1005.6
2022-12-04T12:45:20.496Z,1005.6
2022-12-04T12:46:22.242Z,1005.5
2022-12-04T12:47:24.137Z,1005.5
2022-12-04T12:48:26.281Z,1005.5
2022-12-04T12:49:28.152Z,1005.5
2022-12-04T12:50:30.168Z,1005.5
2022-12-04T12:51:32.953Z,1005.5
2022-12-04T12:52:34.306Z,1005.5
2022-12-04T12:53:36.094Z,1005.5
2022-12-04T12:54:38.117Z,1005.6
2022-12-04T12:55:40.148Z,1005.6